createdAt,value
2019-06-01T00:01:42.498Z,2.63
2019-06-01T00:04:11.867Z,2.70
2019-06-01T00:06:41.245Z,3.00
2019-06-01T00:09:10.633Z,2.47
2019-06-01T00:11:41.154Z,2.67
2019-06-01T00:14:10.660Z,2.73
2019-06-01T00:16:40.084Z,2.70
2019-06-01T00:19:09.457Z,2.73
2019-06-01T00:21:38.832Z,2.57
2019-06-01T00:24:08.303Z,2.80
2019-06-01T00:26:37.686Z,3.13
2019-06-01T00:29:07.069Z,3.13
2019-06-01T00:31:36.456Z,2.80
2019-06-01T00:34:05.912Z,3.00
2019-06-01T00:36:35.299Z,3.50
2019-06-01T00:39:07.433Z,2.80
2019-06-01T00:41:36.892Z,2.97
2019-06-01T00:44:06.284Z,3.30
2019-06-01T00:46:35.701Z,2.97
2019-06-01T00:49:05.320Z,3.30
2019-06-01T00:51:34.711Z,3.23
2019-06-01T00:54:04.388Z,3.37
2019-06-01T00:56:33.788Z,3.67
2019-06-01T00:59:03.169Z,3.37
2019-06-01T01:01:32.544Z,3.80
2019-06-01T01:04:01.916Z,3.70
2019-06-01T01:06:31.291Z,3.77
2019-06-01T01:09:00.673Z,3.77
2019-06-01T01:11:30.046Z,3.57
2019-06-01T01:13:59.419Z,4.40
2019-06-01T01:16:28.790Z,3.40
2019-06-01T01:18:58.184Z,4.33
2019-06-01T01:21:27.562Z,3.60
2019-06-01T01:23:56.940Z,4.67
2019-06-01T01:26:26.324Z,3.50
2019-06-01T01:28:56.923Z,3.83
2019-06-01T01:31:26.447Z,3.90
2019-06-01T01:33:55.819Z,3.80
2019-06-01T01:36:25.196Z,4.00
2019-06-01T01:38:54.570Z,4.23
2019-06-01T01:41:23.950Z,3.57
2019-06-01T01:43:54.599Z,4.80
2019-06-01T01:46:24.047Z,4.03
2019-06-01T01:48:54.196Z,5.20
2019-06-01T01:51:23.704Z,4.30
2019-06-01T01:53:53.095Z,4.20
2019-06-01T01:56:22.543Z,4.30
2019-06-01T01:58:52.298Z,3.93
2019-06-01T02:01:23.187Z,3.90
2019-06-01T02:03:53.724Z,4.77
2019-06-01T02:06:23.939Z,4.50
2019-06-01T02:08:55.063Z,4.30
2019-06-01T02:11:24.444Z,4.30
2019-06-01T02:13:53.818Z,4.67
2019-06-01T02:16:23.467Z,4.57
2019-06-01T02:18:54.303Z,5.03
2019-06-01T02:21:24.019Z,4.60
2019-06-01T02:23:54.750Z,4.87
2019-06-01T02:26:24.162Z,5.07
2019-06-01T02:28:53.539Z,4.97
2019-06-01T02:31:39.932Z,5.07
2019-06-01T02:33:55.797Z,4.97
2019-06-01T02:36:25.289Z,5.13
2019-06-01T02:38:56.147Z,4.73
2019-06-01T02:41:25.817Z,5.70
2019-06-01T02:43:57.174Z,4.90
2019-06-01T02:46:26.601Z,5.87
2019-06-01T02:48:57.388Z,5.27
2019-06-01T02:51:26.946Z,5.13
2019-06-01T02:53:57.604Z,5.10
2019-06-01T02:56:27.070Z,5.77
2019-06-01T02:58:56.447Z,4.97
2019-06-01T03:01:35.776Z,5.53
2019-06-01T03:04:08.861Z,5.57
2019-06-01T03:06:41.794Z,5.53
2019-06-01T03:09:12.281Z,4.57
2019-06-01T03:11:42.899Z,5.57
2019-06-01T03:14:13.845Z,5.10
2019-06-01T03:16:44.075Z,5.37
2019-06-01T03:19:16.572Z,5.37
2019-06-01T03:21:49.396Z,5.67
2019-06-01T03:24:23.879Z,5.07
2019-06-01T03:26:55.377Z,5.90
2019-06-01T03:29:29.399Z,5.23
2019-06-01T03:32:19.037Z,5.27
2019-06-01T03:34:29.860Z,6.13
2019-06-01T03:37:00.848Z,5.40
2019-06-01T03:39:31.376Z,6.00
2019-06-01T03:42:01.071Z,5.37
2019-06-01T03:44:30.437Z,6.00
2019-06-01T03:46:59.839Z,6.27
2019-06-01T03:49:29.212Z,6.33
2019-06-01T03:51:58.598Z,5.93
2019-06-01T03:54:28.239Z,6.23
2019-06-01T03:56:57.621Z,6.30
2019-06-01T03:59:26.996Z,5.40
2019-06-01T04:01:56.380Z,5.80
2019-06-01T04:04:25.921Z,5.67
2019-06-01T04:06:55.311Z,5.93
2019-06-01T04:09:25.056Z,6.20
2019-06-01T04:11:54.768Z,6.40
2019-06-01T04:14:24.476Z,6.47
2019-06-01T04:16:53.860Z,6.47
2019-06-01T04:19:23.296Z,6.70
2019-06-01T04:21:52.670Z,5.93
2019-06-01T04:24:22.267Z,6.00
2019-06-01T04:26:52.192Z,6.43
2019-06-01T04:29:21.816Z,6.00
2019-06-01T04:31:51.569Z,6.83
2019-06-01T04:34:20.953Z,6.00
2019-06-01T04:36:50.400Z,5.80
2019-06-01T04:39:19.775Z,6.07
2019-06-01T04:41:49.148Z,5.57
2019-06-01T04:44:18.543Z,5.73
2019-06-01T04:46:48.185Z,5.40
2019-06-01T04:49:17.561Z,6.20
2019-06-01T04:51:46.927Z,7.03
2019-06-01T04:54:16.317Z,5.73
2019-06-01T04:56:45.838Z,6.10
2019-06-01T04:59:15.483Z,5.80
2019-06-01T05:01:46.577Z,6.50
2019-06-01T05:04:15.966Z,6.03
2019-06-01T05:06:45.352Z,6.90
2019-06-01T05:09:15.734Z,7.33
2019-06-01T05:11:45.323Z,6.00
2019-06-01T05:14:16.506Z,7.83
2019-06-01T05:16:45.867Z,6.87
2019-06-01T05:19:16.584Z,7.97
2019-06-01T05:21:46.194Z,6.97
2019-06-01T05:24:16.923Z,7.27
2019-06-01T05:26:46.638Z,7.00
2019-06-01T05:29:16.007Z,7.17
2019-06-01T05:31:45.403Z,7.10
2019-06-01T05:34:15.916Z,7.10
2019-06-01T05:36:45.338Z,7.13
2019-06-01T05:39:14.733Z,7.07
2019-06-01T05:41:44.110Z,7.03
2019-06-01T05:44:13.488Z,6.23
2019-06-01T05:46:42.952Z,6.60
2019-06-01T05:49:13.241Z,6.47
2019-06-01T05:51:43.439Z,6.37
2019-06-01T05:54:12.810Z,5.47
2019-06-01T05:56:42.185Z,5.63
2019-06-01T05:59:11.892Z,5.77
2019-06-01T06:01:41.417Z,4.77
2019-06-01T06:04:11.321Z,4.90
2019-06-01T06:06:40.856Z,4.30
2019-06-01T06:09:11.318Z,4.93
2019-06-01T06:11:41.200Z,5.07
2019-06-01T06:14:11.485Z,4.23
2019-06-01T06:16:40.928Z,4.77
2019-06-01T06:19:10.307Z,4.53
2019-06-01T06:21:39.670Z,3.87
2019-06-01T06:24:09.053Z,4.57
2019-06-01T06:26:38.430Z,3.60
2019-06-01T06:29:07.803Z,3.90
2019-06-01T06:31:37.197Z,4.03
2019-06-01T06:34:06.654Z,4.20
2019-06-01T06:36:36.029Z,3.77
2019-06-01T06:39:07.997Z,3.20
2019-06-01T06:41:37.413Z,3.43
2019-06-01T06:44:06.794Z,3.50
2019-06-01T06:46:36.174Z,4.80
2019-06-01T06:49:05.558Z,3.70
2019-06-01T06:51:34.929Z,3.50
2019-06-01T06:54:04.368Z,3.37
2019-06-01T06:56:33.810Z,5.30
2019-06-01T06:59:03.199Z,3.83
2019-06-01T07:01:32.570Z,4.00
2019-06-01T07:04:12.326Z,4.03
2019-06-01T07:06:33.059Z,3.93
2019-06-01T07:09:02.589Z,4.33
2019-06-01T07:11:31.975Z,3.57
2019-06-01T07:14:01.352Z,4.07
2019-06-01T07:16:31.800Z,3.50
2019-06-01T07:19:01.365Z,3.97
2019-06-01T07:21:31.906Z,3.97
2019-06-01T07:24:01.505Z,3.57
2019-06-01T07:26:30.869Z,4.05
2019-06-01T07:29:00.237Z,3.50
2019-06-01T07:31:29.613Z,3.30
2019-06-01T07:33:58.989Z,3.65
2019-06-01T07:36:28.666Z,3.62
2019-06-01T07:38:58.129Z,3.58
2019-06-01T07:41:28.765Z,3.67
2019-06-01T07:43:58.244Z,3.17
2019-06-01T07:46:28.913Z,3.95
2019-06-01T07:48:58.381Z,3.45
2019-06-01T07:51:27.765Z,4.42
2019-06-01T07:53:57.139Z,5.08
2019-06-01T07:56:26.630Z,3.58
2019-06-01T07:58:55.971Z,4.33
2019-06-01T08:01:27.154Z,3.47
2019-06-01T08:03:56.459Z,3.90
2019-06-01T08:06:26.708Z,3.95
2019-06-01T08:08:56.940Z,3.95
2019-06-01T08:11:30.095Z,3.40
2019-06-01T08:13:57.598Z,4.03
2019-06-01T08:16:27.885Z,4.45
2019-06-01T08:18:57.326Z,4.00
2019-06-01T08:21:28.036Z,3.40
2019-06-01T08:23:57.457Z,4.28
2019-06-01T08:26:26.923Z,4.08
2019-06-01T08:28:56.302Z,3.77
2019-06-01T08:31:26.623Z,4.40
2019-06-01T08:33:56.133Z,4.37
2019-06-01T08:36:25.593Z,4.47
2019-06-01T08:38:54.959Z,4.35
2019-06-01T08:41:25.528Z,4.03
2019-06-01T08:43:54.994Z,4.30
2019-06-01T08:46:25.479Z,4.45
2019-06-01T08:48:54.925Z,3.90
2019-06-01T08:51:24.310Z,4.60
2019-06-01T08:53:53.681Z,3.70
2019-06-01T08:56:24.221Z,4.42
2019-06-01T08:58:53.615Z,4.08
2019-06-01T09:01:24.422Z,3.62
2019-06-01T09:03:53.913Z,4.20
2019-06-01T09:06:23.292Z,4.25
2019-06-01T09:08:53.277Z,4.22
2019-06-01T09:11:22.662Z,3.47
2019-06-01T09:13:52.501Z,4.12
2019-06-01T09:16:22.583Z,4.10
2019-06-01T09:18:52.310Z,4.55
2019-06-01T09:21:21.684Z,4.75
2019-06-01T09:23:51.061Z,4.37
2019-06-01T09:26:20.433Z,4.25
2019-06-01T09:28:49.813Z,3.95
2019-06-01T09:31:19.193Z,3.80
2019-06-01T09:33:48.590Z,3.95
2019-06-01T09:36:17.953Z,3.52
2019-06-01T09:38:47.332Z,3.75
2019-06-01T09:41:16.767Z,3.55
2019-06-01T09:43:46.116Z,4.20
2019-06-01T09:46:15.497Z,3.60
2019-06-01T09:48:44.871Z,4.42
2019-06-01T09:51:14.242Z,5.53
2019-06-01T09:53:43.634Z,4.20
2019-06-01T09:56:13.093Z,4.47
2019-06-01T09:58:42.471Z,3.58
2019-06-01T10:01:11.852Z,4.00
2019-06-01T10:03:41.229Z,3.95
2019-06-01T10:06:14.018Z,3.20
2019-06-01T10:08:42.440Z,3.87
2019-06-01T10:11:11.968Z,5.08
2019-06-01T10:13:42.625Z,3.55
2019-06-01T10:16:12.186Z,3.20
2019-06-01T10:18:42.956Z,3.40
2019-06-01T10:21:12.528Z,3.50
2019-06-01T10:23:42.764Z,3.37
2019-06-01T10:26:13.007Z,3.40
2019-06-01T10:28:43.548Z,3.25
2019-06-01T10:31:12.927Z,3.35
2019-06-01T10:33:43.301Z,3.40
2019-06-01T10:36:20.813Z,3.50
2019-06-01T10:38:43.860Z,3.98
2019-06-01T10:41:13.237Z,4.60
2019-06-01T10:43:42.637Z,4.10
2019-06-01T10:46:12.017Z,3.37
2019-06-01T10:48:42.164Z,3.35
2019-06-01T10:51:11.655Z,3.45
2019-06-01T10:53:42.432Z,2.90
2019-06-01T10:56:12.143Z,2.70
2019-06-01T10:58:56.795Z,3.25
2019-06-01T11:01:12.898Z,3.02
2019-06-01T11:03:42.844Z,3.27
2019-06-01T11:06:12.336Z,3.58
2019-06-01T11:08:43.049Z,3.67
2019-06-01T11:11:12.636Z,3.33
2019-06-01T11:13:43.167Z,3.20
2019-06-01T11:16:12.940Z,2.80
2019-06-01T11:18:43.488Z,2.70
2019-06-01T11:21:12.970Z,2.55
2019-06-01T11:23:45.214Z,3.15
2019-06-01T11:26:13.477Z,3.12
2019-06-01T11:28:44.377Z,3.72
2019-06-01T11:31:13.864Z,2.87
2019-06-01T11:33:44.308Z,3.67
2019-06-01T11:36:13.795Z,3.70
2019-06-01T11:38:44.682Z,3.55
2019-06-01T11:41:18.315Z,3.30
2019-06-01T11:43:46.296Z,3.95
2019-06-01T11:46:15.633Z,2.70
2019-06-01T11:48:45.456Z,2.80
2019-06-01T11:51:15.202Z,3.62
2019-06-01T11:53:45.666Z,3.65
2019-06-01T11:56:15.138Z,3.27
2019-06-01T11:58:45.625Z,3.65
2019-06-01T12:01:15.176Z,3.42
2019-06-01T12:03:44.557Z,3.72
2019-06-01T12:06:13.929Z,4.15
2019-06-01T12:08:44.047Z,3.35
2019-06-01T12:11:13.557Z,2.12
2019-06-01T12:13:44.332Z,1.62
2019-06-01T12:16:13.966Z,1.75
2019-06-01T12:18:44.626Z,1.77
2019-06-01T12:21:14.086Z,1.67
2019-06-01T12:23:43.461Z,1.57
2019-06-01T12:26:12.836Z,1.10
2019-06-01T12:28:43.713Z,1.17
2019-06-01T12:31:13.296Z,1.00
2019-06-01T12:33:42.682Z,1.05
2019-06-01T12:36:12.066Z,0.85
2019-06-01T12:38:54.076Z,0.90
2019-06-01T12:41:24.167Z,1.27
2019-06-01T12:44:10.483Z,1.02
2019-06-01T12:46:40.191Z,1.20
2019-06-01T12:49:09.907Z,1.10
2019-06-01T12:51:40.528Z,0.95
2019-06-01T12:54:10.200Z,1.10
2019-06-01T12:56:40.768Z,1.25
2019-06-01T12:59:10.214Z,0.95
2019-06-01T13:01:41.049Z,1.35
2019-06-01T13:04:10.507Z,0.80
2019-06-01T13:06:40.705Z,1.17
2019-06-01T13:09:10.415Z,1.15
2019-06-01T13:11:41.197Z,1.62
2019-06-01T13:14:10.655Z,1.40
2019-06-01T13:16:42.941Z,0.85
2019-06-01T13:19:11.247Z,1.12
2019-06-01T13:21:41.360Z,0.80
2019-06-01T13:24:10.799Z,0.70
2019-06-01T13:26:41.641Z,0.80
2019-06-01T13:29:11.224Z,0.80
2019-06-01T13:31:41.940Z,0.70
2019-06-01T13:34:11.476Z,0.82
2019-06-01T13:36:40.832Z,1.20
2019-06-01T13:39:10.214Z,0.88
2019-06-01T13:41:39.592Z,1.55
2019-06-01T13:44:08.968Z,0.60
2019-06-01T13:46:38.344Z,0.80
2019-06-01T13:49:07.726Z,0.70
2019-06-01T13:51:37.104Z,0.80
2019-06-01T13:54:06.483Z,0.90
2019-06-01T13:56:35.856Z,1.07
2019-06-01T13:59:05.306Z,0.80
2019-06-01T14:01:34.680Z,1.12
2019-06-01T14:04:04.601Z,1.00
2019-06-01T14:06:33.977Z,0.80
2019-06-01T14:09:04.592Z,1.00
2019-06-01T14:11:33.970Z,1.10
2019-06-01T14:14:04.283Z,0.80
2019-06-01T14:16:33.657Z,0.90
2019-06-01T14:19:06.700Z,0.75
2019-06-01T14:21:34.141Z,0.98
2019-06-01T14:24:03.844Z,1.07
2019-06-01T14:26:33.226Z,1.10
2019-06-01T14:29:02.617Z,0.90
2019-06-01T14:31:32.004Z,0.78
2019-06-01T14:34:01.385Z,0.50
2019-06-01T14:36:30.765Z,0.82
2019-06-01T14:39:00.144Z,0.90
2019-06-01T14:41:29.524Z,0.60
2019-06-01T14:43:58.909Z,0.90
2019-06-01T14:46:28.298Z,0.60
2019-06-01T14:48:57.979Z,1.70
2019-06-01T14:51:27.357Z,1.00
2019-06-01T14:53:57.939Z,0.70
2019-06-01T14:56:27.387Z,0.82
2019-06-01T14:58:56.772Z,0.90
2019-06-01T15:01:32.664Z,0.93
2019-06-01T15:03:58.396Z,0.78
2019-06-01T15:06:27.783Z,0.70
2019-06-01T15:09:16.662Z,0.70
2019-06-01T15:11:28.363Z,0.60
2019-06-01T15:13:58.595Z,0.50
2019-06-01T15:16:28.027Z,0.62
2019-06-01T15:18:57.703Z,0.40
2019-06-01T15:21:27.162Z,0.50
2019-06-01T15:23:56.824Z,0.60
2019-06-01T15:26:27.507Z,0.50
2019-06-01T15:28:57.113Z,0.53
2019-06-01T15:31:26.610Z,0.60
2019-06-01T15:33:57.294Z,0.55
2019-06-01T15:36:26.749Z,0.68
2019-06-01T15:38:56.143Z,1.17
2019-06-01T15:41:25.510Z,1.20
2019-06-01T15:43:54.977Z,1.25
2019-06-01T15:46:24.398Z,0.85
2019-06-01T15:48:53.753Z,1.15
2019-06-01T15:51:23.123Z,0.90
2019-06-01T15:53:52.952Z,1.00
2019-06-01T15:56:23.707Z,1.20
2019-06-01T15:58:55.398Z,3.83
2019-06-01T16:01:24.315Z,2.90
2019-06-01T16:03:54.962Z,2.77
2019-06-01T16:06:24.444Z,3.05
2019-06-01T16:08:55.130Z,3.33
2019-06-01T16:11:24.687Z,2.62
2019-06-01T16:13:54.070Z,2.67
2019-06-01T16:16:23.451Z,2.72
2019-06-01T16:18:58.580Z,2.75
2019-06-01T16:21:23.924Z,2.85
2019-06-01T16:23:54.116Z,3.02
2019-06-01T16:26:23.564Z,2.80
2019-06-01T16:28:54.229Z,2.47
2019-06-01T16:31:23.794Z,3.02
2019-06-01T16:33:54.407Z,2.98
2019-06-01T16:36:24.098Z,2.30
2019-06-01T16:38:59.542Z,2.20
2019-06-01T16:41:24.971Z,2.37
2019-06-01T16:43:55.457Z,2.58
2019-06-01T16:46:24.905Z,2.60
2019-06-01T16:48:55.359Z,2.83
2019-06-01T16:51:24.847Z,2.85
2019-06-01T16:53:54.222Z,2.62
2019-06-01T16:56:23.629Z,2.70
2019-06-01T16:58:53.011Z,2.42
2019-06-01T17:01:22.384Z,3.02
2019-06-01T17:03:51.768Z,2.83
2019-06-01T17:06:21.480Z,2.87
2019-06-01T17:08:50.880Z,2.20
2019-06-01T17:11:20.269Z,2.62
2019-06-01T17:13:49.657Z,2.72
2019-06-01T17:16:19.034Z,2.35
2019-06-01T17:18:48.408Z,2.37
2019-06-01T17:21:17.796Z,1.77
2019-06-01T17:23:47.174Z,2.67
2019-06-01T17:26:16.577Z,2.60
2019-06-01T17:28:45.958Z,2.65
2019-06-01T17:31:15.339Z,2.58
2019-06-01T17:33:44.769Z,2.85
2019-06-01T17:36:14.124Z,3.08
2019-06-01T17:38:43.508Z,1.85
2019-06-01T17:41:12.877Z,3.65
2019-06-01T17:43:42.254Z,3.42
2019-06-01T17:46:12.066Z,3.40
2019-06-01T17:48:42.660Z,3.50
2019-06-01T17:51:12.802Z,3.58
2019-06-01T17:53:42.204Z,3.33
2019-06-01T17:56:12.180Z,2.80
2019-06-01T17:58:41.771Z,3.70
2019-06-01T18:01:12.104Z,4.10
2019-06-01T18:03:41.512Z,4.55
2019-06-01T18:06:12.795Z,4.60
2019-06-01T18:08:42.384Z,4.25
2019-06-01T18:11:12.224Z,3.58
2019-06-01T18:13:41.535Z,3.83
2019-06-01T18:16:13.022Z,4.03
2019-06-01T18:18:42.212Z,3.70
2019-06-01T18:21:12.977Z,3.15
2019-06-01T18:23:42.382Z,3.08
2019-06-01T18:26:13.064Z,2.60
2019-06-01T18:28:43.738Z,3.62
2019-06-01T18:31:13.414Z,4.20
2019-06-01T18:33:44.066Z,3.17
2019-06-01T18:36:13.795Z,2.55
2019-06-01T18:38:43.163Z,2.40
2019-06-01T18:41:18.612Z,2.75
2019-06-01T18:43:44.754Z,2.60
2019-06-01T18:46:14.508Z,3.05
2019-06-01T18:48:44.328Z,3.00
2019-06-01T18:51:14.430Z,2.83
2019-06-01T18:53:43.972Z,2.83
2019-06-01T18:56:14.367Z,2.60
2019-06-01T18:58:43.875Z,2.30
2019-06-01T19:01:14.644Z,2.62
2019-06-01T19:03:44.234Z,2.52
2019-06-01T19:06:13.840Z,2.60
2019-06-01T19:08:43.424Z,2.98
2019-06-01T19:11:27.394Z,2.98
2019-06-01T19:13:43.917Z,2.80
2019-06-01T19:16:14.321Z,2.60
2019-06-01T19:18:43.745Z,2.83
2019-06-01T19:21:13.125Z,2.42
2019-06-01T19:23:42.500Z,2.40
2019-06-01T19:26:14.814Z,2.58
2019-06-01T19:28:43.091Z,3.12
2019-06-01T19:31:13.383Z,3.10
2019-06-01T19:33:42.791Z,3.20
2019-06-01T19:36:13.012Z,3.35
2019-06-01T19:38:44.230Z,3.10
2019-06-01T19:41:13.612Z,3.00
2019-06-01T19:43:43.068Z,3.20
2019-06-01T19:46:12.448Z,3.02
2019-06-01T19:48:41.874Z,4.53
2019-06-01T19:51:12.468Z,3.87
2019-06-01T19:53:41.954Z,3.58
2019-06-01T19:56:11.336Z,3.20
2019-06-01T19:58:40.724Z,3.08
2019-06-01T20:01:10.215Z,3.75
2019-06-01T20:03:39.549Z,3.47
2019-06-01T20:06:10.645Z,3.60
2019-06-01T20:08:40.128Z,3.37
2019-06-01T20:11:09.511Z,3.83
2019-06-01T20:13:38.882Z,3.52
2019-06-01T20:16:08.264Z,3.90
2019-06-01T20:18:37.674Z,3.10
2019-06-01T20:21:07.049Z,3.12
2019-06-01T20:23:36.420Z,3.47
2019-06-01T20:26:05.960Z,3.55
2019-06-01T20:28:35.368Z,4.12
2019-06-01T20:31:04.767Z,3.05
2019-06-01T20:33:34.136Z,3.05
2019-06-01T20:36:03.511Z,2.80
2019-06-01T20:38:32.884Z,2.65
2019-06-01T20:41:02.266Z,2.92
2019-06-01T20:43:31.639Z,3.20
2019-06-01T20:46:01.010Z,3.15
2019-06-01T20:48:30.383Z,2.95
2019-06-01T20:50:59.832Z,2.92
2019-06-01T20:53:29.220Z,3.27
2019-06-01T20:55:58.603Z,2.72
2019-06-01T20:58:27.974Z,3.30
2019-06-01T21:00:57.353Z,3.33
2019-06-01T21:03:26.733Z,3.85
2019-06-01T21:05:56.106Z,3.75
2019-06-01T21:08:25.487Z,4.50
2019-06-01T21:10:54.867Z,3.65
2019-06-01T21:13:24.301Z,3.77
2019-06-01T21:15:53.692Z,4.50
2019-06-01T21:18:23.084Z,4.80
2019-06-01T21:20:52.449Z,3.75
2019-06-01T21:23:23.023Z,3.35
2019-06-01T21:25:52.674Z,4.08
2019-06-01T21:28:23.372Z,3.80
2019-06-01T21:30:53.191Z,4.65
2019-06-01T21:33:26.558Z,4.20
2019-06-01T21:35:53.682Z,3.98
2019-06-01T21:38:23.692Z,4.40
2019-06-01T21:40:53.184Z,4.55
2019-06-01T21:43:29.736Z,4.40
2019-06-01T21:45:53.722Z,3.77
2019-06-01T21:48:24.222Z,3.98
2019-06-01T21:50:53.766Z,3.92
2019-06-01T21:53:24.424Z,4.33
2019-06-01T21:55:53.907Z,4.00
2019-06-01T21:58:24.566Z,4.45
2019-06-01T22:00:54.286Z,4.70
2019-06-01T22:03:25.627Z,4.17
2019-06-01T22:05:55.341Z,4.25
2019-06-01T22:08:25.348Z,3.83
2019-06-01T22:10:54.875Z,3.47
2019-06-01T22:13:27.106Z,4.35
2019-06-01T22:15:55.833Z,3.83
2019-06-01T22:18:25.851Z,3.22
2019-06-01T22:20:55.253Z,4.25
2019-06-01T22:23:24.633Z,3.62
2019-06-01T22:25:54.008Z,4.25
2019-06-01T22:28:24.493Z,3.92
2019-06-01T22:30:53.939Z,4.47
2019-06-01T22:33:24.494Z,3.87
2019-06-01T22:35:54.068Z,4.60
2019-06-01T22:38:23.799Z,4.45
2019-06-01T22:40:53.306Z,4.15
2019-06-01T22:43:39.187Z,4.47
2019-06-01T22:45:53.819Z,5.10
2019-06-01T22:48:24.508Z,4.70
2019-06-01T22:50:53.953Z,5.08
2019-06-01T22:53:24.083Z,4.70
2019-06-01T22:55:53.599Z,4.92
2019-06-01T22:58:23.233Z,5.70
2019-06-01T23:00:52.737Z,4.90
2019-06-01T23:03:22.114Z,5.75
2019-06-01T23:05:51.656Z,5.20
2019-06-01T23:08:21.035Z,5.05
2019-06-01T23:10:50.421Z,5.30
2019-06-01T23:13:19.787Z,5.42
2019-06-01T23:15:49.164Z,5.42
2019-06-01T23:18:18.540Z,4.85
2019-06-01T23:20:47.911Z,4.78
2019-06-01T23:23:17.291Z,5.12
2019-06-01T23:25:46.665Z,4.85
2019-06-01T23:28:16.039Z,4.72
2019-06-01T23:30:45.414Z,4.67
2019-06-01T23:33:14.798Z,4.25
2019-06-01T23:35:44.282Z,5.08
2019-06-01T23:38:13.663Z,5.00
2019-06-01T23:40:43.061Z,4.62
2019-06-01T23:43:12.440Z,4.45
2019-06-01T23:45:41.820Z,4.10
2019-06-01T23:48:11.258Z,4.58
2019-06-01T23:50:40.657Z,4.65
2019-06-01T23:53:13.746Z,4.40
2019-06-01T23:55:41.431Z,4.35
2019-06-01T23:58:11.027Z,4.03
